Doniphan, Arkansas
Current Conditions -  °F | °C
As of 9:26 AM on Monday 22 Dec 2014 (Local Time) from KSRC Reporting Station
Light Rain Light Rain  
Wind Chill: 50°   Ceiling: NA
Heat Index: 50°   Visibility: 2mi
Dew Point: 48°   Wind: 12mph
Humidity: 94%   Direction: 170°S
Pressure: 29.76"   Gusts: NA
Location:  35.2662°N, 91.8491°W
Report Text: KSRC 221526Z AUTO 17010KT 2SM -RA BR 10/09 A2976 RMK AO2 RAE04B25 P0000 TSNO $
Loading
Personal Weather Stations






























Interactive Weather Map New forecast layout! Learn more

10-Day Weather Forecast

Advertisements
Track Severe Weather on mobile